Dupage Airport
KDPA : now visible

Airfield :











YOU CAN JOIN US ON...

 
LOGIN :

Register | Disclaimer

   EN    FR    IT 

 









Legend :    VFR   Marginal VFR   IFR   Intensive IFR   Very Intensive IFR
Visi :
Ceiling :
>= 8 km
>= 3000ft
5 to 8 km
1000 to 3000 ft
1500m to 5 km
500 to 1000 ft
800 to 1500m
200 to 500 ft
< 800m
< 200 ft
Symbols :   Thunderstorms  Fog  Heavy snow  Heavy precipitations  Wind > 20 kt






- Airport Elevation : 759 ft


KDPA - Dupage

CURRENT METAR :
  • 070752Z 36009KT 10SM SCT060 07/02 A3027 RMK AO2 SLP250 T00670022

EXPIRED METARs :
  • 070652Z 36010KT 10SM FEW027 BKN065 08/03 A3026 RMK AO2 SLP246 T00780028
  • 070552Z 01012KT 10SM BKN050 09/03 A3024 RMK AO2 SLP240 T00890033 10133 20089 402390089 51021

TAF KDPA
Valid from the 07 at 06:00 until the 08 at 06:00 UTC


070532Z 0706/0806 35011G19KT P6SM SCT025 BKN040
FM071800 35013KT P6SM BKN045
FM080000 33007KT P6SM FEW050
KZAU FIR / North America



MET'MAP, your aeronautical weather chart ! - Copyright ORBIFLY December 2007 - Disclaimer

ORBIFLY MET'MAP TEAM :

Programming & Development : Alexandra Zaïnal
Original concept : Baudouin d'Aumeries
Technical & hardware support : Manuel Goepfert
Assistance : Marc-Olivier Méhu




SOURCES & CREDITS :

   NOAA       Earth
Advisory